Pagina principale
METAR-TAF:

METAR-TAF

Aeroporti :

Aeroporto di Milano-Linate

Milano, Italia

latitudine: 45-26N, longitudine: 009-17E, altezza: 107 m

Osservazione

Il bollettino è stato emesso 21 minuti fa, alle 13:20 UTC
Vento 4 kt da ovest/nord-ovest, variando fra sud-ovest e nord/nord-est
Temperature 23°C
Umidità 44%
Pressione 998 hPa
Visibilità 10 km o più
nessuna nube inferiore a 1500 m e nessun cumulonembo

METAR: LIML 271320Z 30004KT 220V030 CAVOK 23/10 Q0998 NOSIG

Ora: 15:41 (13:41 UTC)

Previsione

Il bollettino è stato emesso 2 ore e 41 minuti fa, alle 11:00 UTC
Previsione valida dal 27 alle 12 UTC al 28 alle 12 UTC
Vento 10 kt da nord
Visibilità 10 km o più
Poco nuvoloso ad un'altezza di 5000 ft
Evoluzione graduale
dal 27 alle 18 UTC al 27 alle 20 UTC
Vento 5 kt da direzioni variabili
Evoluzione graduale
dal 28 alle 06 UTC al 28 alle 08 UTC
Vento 10 kt da est

TAF: LIML 271100Z 2712/2812 35010KT 9999 FEW050 BECMG 2718/2720 VRB05KT BECMG 2806/2808 08010KT

Osservazioni e previsioni meteorologiche di più di 4000 aeroporti (messaggi METAR e TAF).

Le stazioni disponibili sono rappresentate dai dischi gialli e rossi sulla carta.

Puntare il mouse per vedere il nome della stazione.

Clicca sopra per visualizzare le osservazioni e previsioni meteorologiche.

Per cambiare la mappa : fare clic sui pulsanti verdi con una croce nera per ingrandire, il pulsante verde con un trattino per diminuire, o sulla freccia verde per le mappe adiacenti.


METAR-TAF: